EDT,Max TemperatureF,Mean TemperatureF,Min TemperatureF,Max Dew PointF,MeanDew PointF,Min DewpointF,Max Humidity, Mean Humidity, Min Humidity, Max Sea Level PressureIn, Mean Sea Level PressureIn, Min Sea Level PressureIn, Max VisibilityMiles, Mean VisibilityMiles, Min VisibilityMiles, Max Wind SpeedMPH, Mean Wind SpeedMPH, Max Gust SpeedMPH,PrecipitationIn, CloudCover, Events, WindDirDegrees
2012-9-1,76,63,50,61,49,43,93,62,31,30.12,30.02,29.84,10,10,10,16,7,23,0.00,0,,3
2012-9-2,64,55,45,59,54,46,100,86,72,30.18,30.14,30.11,10,10,5,14,3,17,0.12,5,Fog-Rain,186
2012-9-3,73,60,47,59,54,48,100,79,57,30.23,30.19,30.13,10,7,1,13,2,16,0.00,5,Fog,184
2012-9-4,77,67,56,61,59,55,100,75,50,30.14,30.04,29.94,10,7,2,16,6,24,0.83,5,Rain,185
2012-9-5,67,62,56,63,60,56,100,91,81,29.94,29.77,29.68,10,5,1,23,8,30,2.63,7,Rain,33
2012-9-6,73,65,56,60,56,54,100,79,57,29.91,29.87,29.83,10,10,10,12,3,15,0.00,4,Fog,1
2012-9-7,80,69,57,66,61,56,100,71,42,29.91,29.88,29.85,10,7,0,12,3,18,0.00,5,Fog,195
2012-9-8,74,68,61,70,66,61,100,90,79,29.90,29.79,29.60,10,7,0,29,10,37,0.07,8,Fog-Rain,173
2012-9-9,69,59,49,69,58,50,100,79,58,29.86,29.75,29.62,10,10,10,17,7,22,T,6,Rain,294
2012-9-10,68,57,45,50,47,45,93,73,52,29.94,29.87,29.83,10,10,10,23,7,28,0.00,3,,318
2012-9-11,70,58,46,47,44,42,93,65,37,30.23,30.11,29.95,10,10,10,15,7,21,0.00,0,,302
2012-9-12,74,59,43,54,49,43,100,74,47,30.33,30.29,30.25,10,10,10,16,3,26,0.00,0,,184
2012-9-13,80,64,48,62,56,48,100,76,52,30.33,30.29,30.23,10,7,0,15,3,17,0.00,1,Fog,187
2012-9-14,77,67,57,63,60,55,100,79,58,30.24,30.19,30.06,10,5,0,16,4,22,0.00,6,Fog,173
2012-9-15,72,60,47,63,55,42,100,75,49,30.05,29.96,29.88,10,10,8,21,8,28,T,6,Rain,224
2012-9-16,64,53,42,42,38,36,89,63,36,30.01,29.96,29.91,10,10,10,20,6,26,0.00,0,,274
2012-9-17,69,53,37,51,43,36,100,70,40,30.08,30.04,30.01,10,10,10,13,4,20,0.00,1,,215
2012-9-18,70,58,45,62,55,46,100,80,59,30.07,30.00,29.78,10,7,0,33,6,47,0.08,7,Fog-Rain,170
2012-9-19,69,55,41,65,54,38,100,69,37,30.24,29.88,29.68,10,8,1,35,18,49,0.70,6,Rain,263
2012-9-20,68,52,35,45,39,34,100,68,36,30.31,30.24,30.18,10,10,10,9,2,10,0.00,1,Fog,37
2012-9-21,60,49,37,54,47,37,100,86,72,30.20,30.16,30.11,10,8,0,6,1,8,0.15,6,Rain,168
2012-9-22,72,63,53,66,59,53,100,92,84,30.10,29.94,29.84,10,5,2,16,4,21,0.03,8,Rain,159
2012-9-23,69,55,41,61,53,43,100,71,42,30.05,29.87,29.78,10,7,0,14,6,23,0.01,5,Fog-Rain,242
2012-9-24,61,49,37,44,41,36,100,70,40,30.12,30.07,30.03,10,10,10,8,1,12,0.00,3,Fog,234
2012-9-25,67,52,37,52,44,38,100,71,42,30.11,30.08,30.05,10,10,9,21,5,28,0.00,1,Fog,197
2012-9-26,62,55,48,61,57,49,100,95,90,30.10,30.02,29.96,10,9,5,14,6,18,0.02,7,Rain,180
2012-9-27,62,50,37,57,45,37,100,71,42,30.27,30.10,29.95,10,8,0,20,7,26,0.00,3,Fog,310
2012-9-28,60,47,33,50,42,33,100,74,47,30.29,30.22,30.15,10,10,7,13,3,21,0.05,7,Rain,161
2012-9-29,54,51,47,54,50,46,100,97,93,30.14,29.99,29.90,10,5,2,15,7,20,0.12,8,Rain,28
2012-9-30,60,57,53,59,55,52,100,97,93,29.94,29.75,29.58,10,3,1,14,7,20,1.52,8,Rain,342